Time;durP1;ratioP1;P1;durP2;ratioP2;P2;SDS_P1;SDS_P2;PMS_P1;PMS_P2;Temp;Humidity;BMP_temperature;BMP_pressure;BME280_temperature;BME280_humidity;BME280_pressure;Samples;Min_cycle;Max_cycle;Signal;HPM_P1;HPM_P2
2023/04/04 00:01:59;;;;;;;1.60;1.50;;;3.10;94.60;;;;;;5005751;28;20492;-73
2023/04/04 00:04:26;;;;;;;1.60;1.50;;;3.10;94.70;;;;;;5016080;28;20463;-73
2023/04/04 00:06:53;;;;;;;1.60;1.50;;;3.10;94.90;;;;;;5007829;28;20495;-73
2023/04/04 00:09:21;;;;;;;1.60;1.50;;;3.10;94.90;;;;;;5016476;28;20471;-73
2023/04/04 00:11:48;;;;;;;1.60;1.50;;;3.10;95.00;;;;;;5003986;28;20487;-73
2023/04/04 00:14:15;;;;;;;1.50;1.40;;;3.00;94.90;;;;;;5017137;28;20455;-73
2023/04/04 00:16:41;;;;;;;1.60;1.50;;;3.00;95.10;;;;;;5013853;28;20471;-73
2023/04/04 00:19:10;;;;;;;1.73;1.63;;;3.00;95.00;;;;;;5024732;28;20958;-73
2023/04/04 00:21:37;;;;;;;1.70;1.60;;;3.00;95.00;;;;;;5007975;28;20480;-71
2023/04/04 00:24:04;;;;;;;1.60;1.50;;;3.00;95.30;;;;;;5010406;28;20945;-73
2023/04/04 00:26:32;;;;;;;1.60;1.50;;;2.90;95.30;;;;;;5010166;28;21666;-73
2023/04/04 00:28:58;;;;;;;1.73;1.63;;;2.90;95.40;;;;;;5012830;28;20467;-73
2023/04/04 00:31:26;;;;;;;1.50;1.40;;;2.90;95.60;;;;;;5010223;28;20484;-73
2023/04/04 00:33:53;;;;;;;26.60;14.33;;;2.90;95.90;;;;;;5009106;28;20471;-73
2023/04/04 00:36:20;;;;;;;1.60;1.50;;;2.80;96.50;;;;;;5015466;28;20932;-73
2023/04/04 00:38:47;;;;;;;1.60;1.50;;;2.80;95.90;;;;;;5014785;28;20490;-73
2023/04/04 00:41:14;;;;;;;1.60;1.50;;;2.80;95.60;;;;;;5014995;28;20487;-73
2023/04/04 00:43:42;;;;;;;1.70;1.60;;;2.80;95.60;;;;;;5011061;28;20931;-73
2023/04/04 00:46:13;;;;;;;1.70;1.60;;;2.80;95.60;;;;;;5015804;28;20514;-72
2023/04/04 00:48:41;;;;;;;1.70;1.60;;;2.80;95.80;;;;;;5012779;28;20485;-73
2023/04/04 00:51:07;;;;;;;1.60;1.50;;;2.70;95.90;;;;;;5016429;28;20492;-73
2023/04/04 00:53:34;;;;;;;1.70;1.60;;;2.70;96.10;;;;;;5011082;28;20525;-73
2023/04/04 00:56:01;;;;;;;1.60;1.50;;;2.70;96.10;;;;;;5017736;28;20464;-73
2023/04/04 00:58:29;;;;;;;1.60;1.50;;;2.70;96.20;;;;;;5009866;28;20464;-73
2023/04/04 01:00:58;;;;;;;1.60;1.50;;;2.70;96.10;;;;;;5017345;28;20494;-73
2023/04/04 01:03:25;;;;;;;1.70;1.60;;;2.60;96.30;;;;;;5009547;28;20820;-73
2023/04/04 01:05:51;;;;;;;1.60;1.50;;;2.60;96.30;;;;;;5019358;28;20466;-73
2023/04/04 01:08:22;;;;;;;1.57;1.47;;;2.60;96.50;;;;;;5010001;28;20842;-73
2023/04/04 01:10:49;;;;;;;1.60;1.50;;;2.60;96.70;;;;;;5016474;28;20456;-73
2023/04/04 01:13:16;;;;;;;1.60;1.50;;;2.60;96.70;;;;;;5007194;28;20456;-73
2023/04/04 01:15:43;;;;;;;1.60;1.50;;;2.50;96.60;;;;;;5028560;28;20462;-73
2023/04/04 01:18:15;;;;;;;1.60;1.50;;;2.60;96.70;;;;;;4999490;28;20986;-72
2023/04/04 01:20:56;;;;;;;1.60;1.50;;;2.60;96.80;;;;;;5028636;28;20470;-73
2023/04/04 01:23:30;;;;;;;1.80;1.70;;;2.60;96.70;;;;;;5009448;28;20471;-73
2023/04/04 01:26:04;;;;;;;1.60;1.50;;;2.50;97.10;;;;;;5017570;28;20467;-73
2023/04/04 01:28:31;;;;;;;1.60;1.50;;;2.50;97.20;;;;;;5011082;28;20470;-72
2023/04/04 01:31:01;;;;;;;1.67;1.57;;;2.40;97.30;;;;;;5016088;28;20840;-72
2023/04/04 01:33:32;;;;;;;1.70;1.60;;;2.40;97.60;;;;;;5013954;28;20507;-73
2023/04/04 01:36:05;;;;;;;1.70;1.60;;;2.30;97.90;;;;;;5004864;28;21785;-73
2023/04/04 01:38:40;;;;;;;1.60;1.50;;;2.30;98.10;;;;;;5011147;28;20464;-73
2023/04/04 01:41:10;;;;;;;1.60;1.50;;;2.30;98.10;;;;;;5009319;28;20481;-73
2023/04/04 01:43:37;;;;;;;1.60;1.50;;;2.30;98.00;;;;;;5014791;28;20884;-73
2023/04/04 01:46:05;;;;;;;1.60;1.50;;;2.30;98.10;;;;;;5011674;28;20486;-72
2023/04/04 01:48:31;;;;;;;1.60;1.50;;;2.30;98.20;;;;;;5014938;28;20459;-73
2023/04/04 01:51:00;;;;;;;1.60;1.50;;;2.30;98.20;;;;;;5027042;28;20482;-72
2023/04/04 01:53:27;;;;;;;1.60;1.50;;;2.20;98.20;;;;;;5013046;28;20466;-72
2023/04/04 01:55:54;;;;;;;1.70;1.60;;;2.20;98.20;;;;;;5011734;28;20459;-72
2023/04/04 01:58:22;;;;;;;1.60;1.50;;;2.20;98.10;;;;;;5006665;28;20545;-73
2023/04/04 02:00:49;;;;;;;1.70;1.60;;;2.20;98.20;;;;;;5026388;28;20473;-71
2023/04/04 02:03:16;;;;;;;1.70;1.60;;;2.10;98.20;;;;;;5010612;28;20949;-73
2023/04/04 02:05:43;;;;;;;1.63;1.53;;;2.10;98.20;;;;;;5046028;28;20455;-73
2023/04/04 02:08:11;;;;;;;1.60;1.50;;;2.00;98.20;;;;;;5002054;28;20903;-73
2023/04/04 02:10:37;;;;;;;1.60;1.50;;;2.00;98.20;;;;;;5037473;28;20471;-71
2023/04/04 02:13:05;;;;;;;1.60;1.50;;;2.00;98.20;;;;;;4998142;28;20476;-71
2023/04/04 02:15:34;;;;;;;1.60;1.50;;;1.90;98.20;;;;;;5042013;28;20857;-71
2023/04/04 02:18:01;;;;;;;1.60;1.50;;;1.90;98.20;;;;;;5002439;28;20484;-74
2023/04/04 02:20:28;;;;;;;1.70;1.60;;;1.90;98.20;;;;;;5037264;28;20857;-74
2023/04/04 02:22:56;;;;;;;1.70;1.60;;;1.80;98.20;;;;;;5002354;28;20484;-74
2023/04/04 02:25:24;;;;;;;1.60;1.50;;;1.80;98.20;;;;;;5043114;28;20451;-73
2023/04/04 02:27:50;;;;;;;1.60;1.50;;;1.80;98.20;;;;;;5003619;28;20490;-73
2023/04/04 02:30:18;;;;;;;1.80;1.70;;;1.70;98.20;;;;;;5043866;28;20459;-73
2023/04/04 02:32:46;;;;;;;1.70;1.60;;;1.70;98.20;;;;;;5001192;28;20490;-74
2023/04/04 02:35:13;;;;;;;1.70;1.60;;;1.70;98.20;;;;;;5037572;28;20485;-73
2023/04/04 02:37:40;;;;;;;1.70;1.60;;;1.70;98.20;;;;;;5003491;28;20480;-74
2023/04/04 02:40:08;;;;;;;1.60;1.50;;;1.60;98.20;;;;;;5041589;28;20468;-74
2023/04/04 02:42:35;;;;;;;1.60;1.50;;;1.60;98.20;;;;;;4999525;28;21048;-74
2023/04/04 02:45:01;;;;;;;1.80;1.70;;;1.60;98.20;;;;;;5035393;28;20462;-74
2023/04/04 02:47:28;;;;;;;1.70;1.60;;;1.60;98.20;;;;;;5007550;28;20476;-74
2023/04/04 02:49:56;;;;;;;1.60;1.50;;;1.60;98.20;;;;;;5038467;28;20477;-74
2023/04/04 02:52:23;;;;;;;1.60;1.50;;;1.50;98.20;;;;;;5014886;28;20993;-74
2023/04/04 02:54:50;;;;;;;1.67;1.57;;;1.50;98.20;;;;;;5036212;28;20462;-74
2023/04/04 02:57:17;;;;;;;1.67;1.57;;;1.50;98.20;;;;;;5011103;28;20476;-74
2023/04/04 02:59:44;;;;;;;1.70;1.60;;;1.50;98.20;;;;;;5031959;28;20490;-74
2023/04/04 03:02:10;;;;;;;1.60;1.50;;;1.50;98.20;;;;;;5012459;28;20491;-74
2023/04/04 03:04:37;;;;;;;1.60;1.50;;;1.40;98.20;;;;;;5029868;28;20852;-74
2023/04/04 03:07:05;;;;;;;1.70;1.60;;;1.40;98.20;;;;;;5003668;28;20484;-74
2023/04/04 03:09:32;;;;;;;1.70;1.60;;;1.40;98.20;;;;;;5013589;28;20460;-74
2023/04/04 03:12:00;;;;;;;1.60;1.50;;;1.40;98.20;;;;;;5004589;28;20483;-74
2023/04/04 03:14:28;;;;;;;1.70;1.60;;;1.40;98.20;;;;;;5020159;28;20465;-74
2023/04/04 03:16:56;;;;;;;1.60;1.50;;;1.40;98.20;;;;;;5013360;28;20483;-73
2023/04/04 03:19:24;;;;;;;1.80;1.70;;;1.30;98.20;;;;;;5024366;28;20916;-74
2023/04/04 03:21:50;;;;;;;1.70;1.60;;;1.30;98.20;;;;;;5013389;28;20479;-74
2023/04/04 03:24:19;;;;;;;1.70;1.60;;;1.30;98.20;;;;;;5030140;28;20458;-73
2023/04/04 03:26:45;;;;;;;1.70;1.60;;;1.30;98.20;;;;;;5007332;28;20476;-72
2023/04/04 03:29:12;;;;;;;1.70;1.60;;;1.30;98.20;;;;;;5021420;28;20454;-73
2023/04/04 03:31:40;;;;;;;1.70;1.60;;;1.30;98.20;;;;;;5011721;28;20884;-73
2023/04/04 03:34:08;;;;;;;1.90;1.80;;;1.30;98.20;;;;;;5018587;28;21027;-73
2023/04/04 03:36:35;;;;;;;1.70;1.60;;;1.30;98.20;;;;;;5008394;28;20515;-73
2023/04/04 03:39:02;;;;;;;1.70;1.60;;;1.30;98.20;;;;;;5018905;28;20470;-73
2023/04/04 03:41:30;;;;;;;1.70;1.60;;;1.30;98.20;;;;;;5012430;28;20475;-73
2023/04/04 03:43:56;;;;;;;1.60;1.50;;;1.20;98.20;;;;;;5010810;28;20463;-73
2023/04/04 03:46:24;;;;;;;1.80;1.70;;;1.20;98.20;;;;;;5009792;28;20787;-73
2023/04/04 03:48:50;;;;;;;1.70;1.60;;;1.20;98.20;;;;;;5013490;28;20581;-73
2023/04/04 03:51:23;;;;;;;1.70;1.60;;;1.20;98.20;;;;;;5010932;28;20982;-73
2023/04/04 03:53:50;;;;;;;1.70;1.60;;;1.20;98.20;;;;;;5010572;28;20459;-73
2023/04/04 03:56:17;;;;;;;1.80;1.70;;;1.10;98.20;;;;;;5009485;28;20481;-73
2023/04/04 03:58:45;;;;;;;1.70;1.60;;;1.10;98.20;;;;;;5008240;28;20479;-72
2023/04/04 04:01:12;;;;;;;1.70;1.60;;;1.10;98.20;;;;;;5010963;28;20542;-73
2023/04/04 04:03:39;;;;;;;1.80;1.70;;;1.10;98.20;;;;;;5004189;28;20487;-74
2023/04/04 04:06:06;;;;;;;1.70;1.60;;;1.10;98.20;;;;;;5011633;28;20474;-72
2023/04/04 04:08:32;;;;;;;1.60;1.50;;;1.10;98.20;;;;;;5004798;28;20467;-73
2023/04/04 04:11:04;;;;;;;1.70;1.60;;;1.10;98.20;;;;;;5018426;28;20490;-73
2023/04/04 04:13:31;;;;;;;1.70;1.60;;;1.00;98.20;;;;;;5014724;28;20462;-73
2023/04/04 04:15:59;;;;;;;1.70;1.60;;;1.00;98.20;;;;;;5016954;28;20463;-73
2023/04/04 04:18:26;;;;;;;1.70;1.60;;;1.00;98.20;;;;;;5009435;28;20469;-73
2023/04/04 04:20:57;;;;;;;1.70;1.60;;;1.00;98.20;;;;;;5017743;28;20544;-73
2023/04/04 04:23:24;;;;;;;1.70;1.60;;;1.10;98.20;;;;;;5009584;28;21050;-73
2023/04/04 04:25:51;;;;;;;1.67;1.57;;;1.00;98.20;;;;;;5019411;28;20570;-73
2023/04/04 04:28:18;;;;;;;1.70;1.60;;;1.00;98.20;;;;;;5005207;28;20462;-74
2023/04/04 04:30:46;;;;;;;1.97;1.87;;;1.00;98.20;;;;;;5027625;28;20561;-76
2023/04/04 04:33:14;;;;;;;1.80;1.70;;;1.00;98.20;;;;;;4994169;28;20479;-73
2023/04/04 04:35:41;;;;;;;1.70;1.60;;;1.00;98.20;;;;;;5027216;28;20958;-72
2023/04/04 04:38:07;;;;;;;1.70;1.60;;;1.00;98.20;;;;;;5005056;28;20799;-72
2023/04/04 04:40:35;;;;;;;1.80;1.70;;;1.00;98.20;;;;;;5028054;28;20466;-72
2023/04/04 04:43:02;;;;;;;1.70;1.60;;;1.00;98.20;;;;;;4993094;28;21404;-72
2023/04/04 04:45:29;;;;;;;1.70;1.60;;;0.90;98.20;;;;;;5027568;28;20968;-72
2023/04/04 04:47:56;;;;;;;1.70;1.60;;;0.90;98.20;;;;;;4999221;28;20508;-72
2023/04/04 04:50:24;;;;;;;1.83;1.73;;;0.90;98.20;;;;;;5027530;28;20953;-71
2023/04/04 04:52:51;;;;;;;1.70;1.60;;;0.90;98.20;;;;;;4991089;28;20480;-72
2023/04/04 04:55:18;;;;;;;1.90;1.80;;;0.80;98.20;;;;;;5027698;28;20513;-71
2023/04/04 04:57:46;;;;;;;1.80;1.70;;;0.80;98.20;;;;;;5007451;28;20472;-72
2023/04/04 05:00:16;;;;;;;1.70;1.60;;;0.80;98.20;;;;;;5025096;28;20459;-71
2023/04/04 05:02:42;;;;;;;1.70;1.60;;;0.80;98.20;;;;;;4990768;28;20553;-72
2023/04/04 05:05:09;;;;;;;1.70;1.60;;;0.80;98.20;;;;;;5021659;28;20467;-73
2023/04/04 05:07:37;;;;;;;1.70;1.60;;;0.80;98.20;;;;;;4994925;28;21003;-72
2023/04/04 05:10:05;;;;;;;1.70;1.60;;;0.80;98.20;;;;;;5025483;28;20980;-72
2023/04/04 05:12:32;;;;;;;1.70;1.60;;;0.80;98.20;;;;;;4995912;28;20715;-72
2023/04/04 05:14:58;;;;;;;1.77;1.67;;;0.80;98.20;;;;;;5024820;28;20474;-72
2023/04/04 05:17:25;;;;;;;1.70;1.60;;;0.80;98.20;;;;;;4998256;28;20481;-72
2023/04/04 05:19:52;;;;;;;1.70;1.60;;;0.80;98.20;;;;;;5023813;28;20461;-72
2023/04/04 05:22:19;;;;;;;1.70;1.60;;;0.80;98.20;;;;;;5007509;28;20480;-72
2023/04/04 05:24:53;;;;;;;1.77;1.67;;;0.80;98.20;;;;;;5024268;28;20490;-73
2023/04/04 05:27:20;;;;;;;1.70;1.60;;;0.80;98.20;;;;;;5008057;28;20488;-72
2023/04/04 05:29:47;;;;;;;1.60;1.50;;;0.80;98.20;;;;;;5026711;28;20996;-70
2023/04/04 05:32:14;;;;;;;1.70;1.60;;;0.80;98.20;;;;;;5011108;28;20474;-71
2023/04/04 05:34:41;;;;;;;1.77;1.67;;;0.80;98.20;;;;;;5026294;28;20644;-71
2023/04/04 05:37:08;;;;;;;1.80;1.70;;;0.70;98.20;;;;;;5003057;28;20534;-71
2023/04/04 05:39:35;;;;;;;1.70;1.60;;;0.80;98.20;;;;;;5019799;28;20463;-72
2023/04/04 05:42:03;;;;;;;1.80;1.70;;;0.80;98.20;;;;;;5001081;28;20483;-72
2023/04/04 05:44:30;;;;;;;1.80;1.70;;;0.80;98.20;;;;;;5003910;28;20839;-74
2023/04/04 05:46:57;;;;;;;1.70;1.60;;;0.90;98.20;;;;;;4994750;28;20495;-72
2023/04/04 05:49:23;;;;;;;1.80;1.70;;;0.90;98.20;;;;;;5017978;28;20464;-71
2023/04/04 05:51:51;;;;;;;1.80;1.70;;;0.90;98.20;;;;;;5009233;28;21013;-71
2023/04/04 05:54:17;;;;;;;1.70;1.60;;;0.90;98.20;;;;;;5017445;28;20510;-72
2023/04/04 05:56:44;;;;;;;1.90;1.80;;;0.90;98.20;;;;;;5011715;28;20486;-72
2023/04/04 05:59:13;;;;;;;1.70;1.60;;;1.00;98.20;;;;;;5019688;28;20878;-72
2023/04/04 06:01:40;;;;;;;1.70;1.60;;;1.00;98.20;;;;;;5006369;28;21849;-72
2023/04/04 06:04:07;;;;;;;1.73;1.63;;;1.00;98.20;;;;;;5014857;28;20514;-72
2023/04/04 06:06:34;;;;;;;1.70;1.60;;;1.10;98.20;;;;;;5008835;28;21049;-72
2023/04/04 06:09:02;;;;;;;1.70;1.60;;;1.10;98.20;;;;;;5011246;28;20550;-73
2023/04/04 06:11:28;;;;;;;1.70;1.60;;;1.20;98.20;;;;;;5006344;28;20503;-73
2023/04/04 06:13:55;;;;;;;1.70;1.60;;;1.30;98.20;;;;;;5012531;28;20885;-73
2023/04/04 06:16:23;;;;;;;1.60;1.50;;;1.40;98.20;;;;;;5013661;28;20547;-73
2023/04/04 06:18:50;;;;;;;1.70;1.60;;;1.50;98.20;;;;;;5017982;28;20471;-73
2023/04/04 06:21:17;;;;;;;1.67;1.57;;;1.80;98.20;;;;;;5011030;28;21056;-73
2023/04/04 06:23:43;;;;;;;1.70;1.60;;;2.20;98.20;;;;;;5018178;28;20613;-73
2023/04/04 06:26:11;;;;;;;1.60;1.50;;;2.50;98.20;;;;;;5013014;28;20489;-73
2023/04/04 06:28:38;;;;;;;1.60;1.50;;;2.80;98.20;;;;;;5008664;28;21125;-73
2023/04/04 06:31:06;;;;;;;1.60;1.50;;;3.00;98.20;;;;;;5013108;28;20877;-73
2023/04/04 06:33:35;;;;;;;1.70;1.60;;;3.20;98.20;;;;;;5005547;28;20463;-73
2023/04/04 06:36:05;;;;;;;1.67;1.57;;;3.30;98.20;;;;;;5016300;28;20467;-73
2023/04/04 06:38:32;;;;;;;1.60;1.50;;;3.40;98.20;;;;;;5021962;28;20464;-73
2023/04/04 06:40:58;;;;;;;1.53;1.40;;;3.70;98.20;;;;;;5014605;28;21390;-73
2023/04/04 06:43:26;;;;;;;1.60;1.50;;;3.80;96.90;;;;;;5012569;28;20510;-73
2023/04/04 06:45:53;;;;;;;1.57;1.30;;;3.90;96.40;;;;;;5016281;28;20489;-73
2023/04/04 06:48:20;;;;;;;1.57;1.33;;;4.10;95.90;;;;;;5015250;28;20468;-74
2023/04/04 06:50:48;;;;;;;1.57;1.30;;;4.30;96.00;;;;;;5025055;28;20537;-73
2023/04/04 06:53:15;;;;;;;1.50;1.37;;;4.50;94.60;;;;;;5009273;28;20459;-74
2023/04/04 06:55:42;;;;;;;1.57;1.40;;;4.60;93.30;;;;;;5025810;28;20797;-73
2023/04/04 06:58:09;;;;;;;1.50;1.30;;;4.80;92.90;;;;;;4993133;28;20476;-73
2023/04/04 07:00:36;;;;;;;1.57;1.30;;;5.10;92.00;;;;;;5025276;28;21126;-74
2023/04/04 07:03:02;;;;;;;1.50;1.40;;;5.30;91.50;;;;;;4985767;28;20477;-74
2023/04/04 07:05:30;;;;;;;1.60;1.40;;;5.50;90.70;;;;;;5026484;28;20486;-76
2023/04/04 07:07:59;;;;;;;1.53;1.40;;;5.60;90.30;;;;;;5009042;28;21015;-74
2023/04/04 07:10:26;;;;;;;1.63;1.53;;;5.80;89.40;;;;;;5025420;28;20486;-74
2023/04/04 07:12:53;;;;;;;1.57;1.40;;;5.80;88.80;;;;;;4990729;28;20514;-75
2023/04/04 07:15:20;;;;;;;1.50;1.30;;;6.10;88.80;;;;;;5005130;28;20460;-75
2023/04/04 07:17:47;;;;;;;1.53;1.30;;;6.30;88.10;;;;;;5006731;28;20491;-74
2023/04/04 07:20:14;;;;;;;1.57;1.30;;;6.40;87.30;;;;;;5026621;28;20617;-74
2023/04/04 07:22:41;;;;;;;1.53;1.30;;;6.50;87.30;;;;;;5003933;28;20482;-75
2023/04/04 07:25:10;;;;;;;1.60;1.30;;;6.60;86.10;;;;;;5024178;28;20463;-74
2023/04/04 07:27:39;;;;;;;1.60;1.30;;;6.70;86.20;;;;;;4997580;28;20515;-75
2023/04/04 07:30:07;;;;;;;1.50;1.20;;;6.80;83.50;;;;;;5024169;28;20884;-75
2023/04/04 07:32:34;;;;;;;1.50;1.27;;;6.80;82.30;;;;;;4996124;28;20488;-75
2023/04/04 07:35:01;;;;;;;1.50;1.20;;;6.80;82.20;;;;;;5023349;28;20461;-74
2023/04/04 07:37:28;;;;;;;1.60;1.30;;;7.00;82.50;;;;;;5004105;28;20531;-74
2023/04/04 07:39:54;;;;;;;1.50;1.20;;;7.30;81.60;;;;;;5023070;28;20494;-75
2023/04/04 07:42:23;;;;;;;1.60;1.43;;;7.30;78.70;;;;;;5007044;28;21028;-74
2023/04/04 07:44:49;;;;;;;1.50;1.20;;;7.50;79.40;;;;;;5024159;28;20893;-72
2023/04/04 07:47:16;;;;;;;1.50;1.23;;;7.70;78.30;;;;;;5012887;28;20930;-72
2023/04/04 07:49:43;;;;;;;1.50;1.20;;;7.80;78.10;;;;;;5025690;28;20533;-75
2023/04/04 07:52:10;;;;;;;1.50;1.20;;;7.70;77.60;;;;;;5008493;28;20494;-73
2023/04/04 07:54:37;;;;;;;1.50;1.20;;;7.70;76.20;;;;;;5024590;28;20510;-74
2023/04/04 07:57:04;;;;;;;1.60;1.20;;;7.80;76.10;;;;;;5013178;28;20482;-73
2023/04/04 07:59:33;;;;;;;1.57;1.20;;;8.00;76.30;;;;;;5028923;28;20968;-73
2023/04/04 08:01:59;;;;;;;1.50;1.10;;;8.20;76.00;;;;;;5014350;28;20521;-73
2023/04/04 08:04:26;;;;;;;1.50;1.20;;;8.40;75.50;;;;;;5028324;28;20936;-73
2023/04/04 08:06:53;;;;;;;1.50;1.20;;;8.50;75.20;;;;;;5007415;28;20997;-73
2023/04/04 08:09:20;;;;;;;1.50;1.27;;;8.50;72.70;;;;;;5020762;28;20482;-74
2023/04/04 08:11:46;;;;;;;1.50;1.10;;;8.30;72.70;;;;;;5004365;28;20489;-73
2023/04/04 08:14:13;;;;;;;1.50;1.20;;;8.30;73.00;;;;;;5013153;28;20994;-73
2023/04/04 08:16:41;;;;;;;1.50;1.10;;;8.00;72.70;;;;;;5014412;28;20559;-73
2023/04/04 08:19:08;;;;;;;1.50;1.20;;;7.90;72.30;;;;;;5022576;28;20466;-73
2023/04/04 08:21:35;;;;;;;1.50;1.20;;;7.90;73.50;;;;;;5006438;28;20492;-73
2023/04/04 08:24:02;;;;;;;1.50;1.30;;;7.80;73.80;;;;;;5013625;28;20493;-73
2023/04/04 08:26:29;;;;;;;1.50;1.17;;;7.90;75.00;;;;;;5012766;28;20963;-74
2023/04/04 08:28:56;;;;;;;1.50;1.10;;;8.10;73.10;;;;;;5015455;28;20467;-73
2023/04/04 08:31:23;;;;;;;1.50;1.20;;;8.20;73.50;;;;;;5007286;28;20488;-73
2023/04/04 08:33:52;;;;;;;1.50;1.20;;;8.50;73.80;;;;;;5013117;28;20463;-73
2023/04/04 08:36:19;;;;;;;1.50;1.20;;;8.50;73.40;;;;;;5015870;28;20546;-73
2023/04/04 08:38:45;;;;;;;1.50;1.20;;;8.80;73.70;;;;;;5017051;28;20470;-73
2023/04/04 08:41:14;;;;;;;1.50;1.13;;;8.90;72.70;;;;;;5015858;28;20861;-74
2023/04/04 08:43:45;;;;;;;1.50;1.10;;;9.00;72.10;;;;;;5012889;28;20556;-73
2023/04/04 08:46:13;;;;;;;1.50;1.20;;;9.00;70.80;;;;;;5016681;28;20491;-73
2023/04/04 08:48:42;;;;;;;1.50;1.13;;;8.80;71.50;;;;;;5012019;28;20470;-73
2023/04/04 08:51:12;;;;;;;1.50;1.10;;;8.90;72.90;;;;;;5016044;28;21561;-75
2023/04/04 08:53:39;;;;;;;1.50;1.10;;;8.80;71.40;;;;;;5011509;28;20466;-75
2023/04/04 08:56:06;;;;;;;1.50;1.10;;;8.90;72.90;;;;;;5015595;28;20459;-77
2023/04/04 08:58:33;;;;;;;1.50;1.10;;;9.10;73.20;;;;;;5022705;28;20459;-75
2023/04/04 09:01:00;;;;;;;1.50;1.10;;;9.20;71.50;;;;;;5018823;28;20494;-76
2023/04/04 09:03:31;;;;;;;1.50;1.10;;;9.40;72.00;;;;;;5026128;28;20962;-76
2023/04/04 09:05:58;;;;;;;1.50;1.10;;;9.70;72.00;;;;;;5017373;28;20476;-76
2023/04/04 09:08:28;;;;;;;1.50;1.10;;;10.00;72.90;;;;;;5017732;28;20464;-75
2023/04/04 09:10:55;;;;;;;1.50;1.10;;;10.30;71.80;;;;;;4997771;28;20783;-76
2023/04/04 09:13:22;;;;;;;1.50;1.20;;;10.40;70.50;;;;;;5000233;28;20464;-76
2023/04/04 09:15:51;;;;;;;1.50;1.10;;;10.70;71.00;;;;;;4999407;28;20468;-74
2023/04/04 09:18:18;;;;;;;1.50;1.10;;;10.80;70.80;;;;;;5005853;28;20829;-73
2023/04/04 09:20:46;;;;;;;1.47;1.00;;;10.70;67.30;;;;;;5005339;28;21008;-73
2023/04/04 09:23:16;;;;;;;1.50;1.10;;;10.50;67.60;;;;;;4996486;28;20479;-73
2023/04/04 09:25:49;;;;;;;1.50;1.00;;;10.30;67.40;;;;;;5027978;28;20498;-73
2023/04/04 09:28:16;;;;;;;1.50;1.10;;;10.10;69.20;;;;;;4981543;28;20980;-74
2023/04/04 09:30:44;;;;;;;1.50;1.10;;;10.30;70.00;;;;;;5007711;28;20464;-74
2023/04/04 09:33:12;;;;;;;1.50;1.10;;;10.40;68.40;;;;;;4997145;28;20502;-72
2023/04/04 09:35:43;;;;;;;1.50;1.00;;;10.70;70.40;;;;;;5025055;28;20463;-74
2023/04/04 09:38:10;;;;;;;1.50;1.10;;;11.10;69.30;;;;;;4975233;28;20479;-74
2023/04/04 09:40:37;;;;;;;1.50;1.10;;;11.00;66.60;;;;;;5005077;28;21021;-73
2023/04/04 09:43:08;;;;;;;1.43;0.90;;;10.90;66.80;;;;;;4989607;28;20480;-73
2023/04/04 09:45:39;;;;;;;1.50;1.00;;;10.80;67.60;;;;;;5008499;28;20985;-74
2023/04/04 09:48:06;;;;;;;1.50;1.10;;;10.80;66.80;;;;;;4996567;28;20853;-73
2023/04/04 09:50:33;;;;;;;1.50;1.00;;;10.70;66.30;;;;;;5007678;28;20483;-74
2023/04/04 09:53:00;;;;;;;1.47;1.00;;;10.70;67.10;;;;;;4995058;28;20555;-73
2023/04/04 09:55:35;;;;;;;5.30;2.33;;;10.70;68.40;;;;;;5007643;28;20452;-74
2023/04/04 09:58:12;;;;;;;1.47;1.00;;;10.70;66.70;;;;;;4988519;28;20559;-74
2023/04/04 10:00:43;;;;;;;1.47;1.00;;;10.90;67.50;;;;;;5010375;28;20845;-75
2023/04/04 10:03:12;;;;;;;1.50;1.00;;;11.00;67.60;;;;;;4998877;28;20488;-74
2023/04/04 10:05:39;;;;;;;1.47;1.00;;;11.40;68.30;;;;;;5007680;28;20947;-75
2023/04/04 10:08:17;;;;;;;1.43;1.00;;;11.70;68.00;;;;;;4989030;28;20522;-74
2023/04/04 10:10:48;;;;;;;1.50;1.10;;;12.10;68.30;;;;;;5005487;28;20472;-74
2023/04/04 10:13:23;;;;;;;1.50;1.00;;;12.50;67.60;;;;;;4997934;28;20478;-74
2023/04/04 10:15:51;;;;;;;1.50;1.00;;;12.60;67.00;;;;;;5015860;28;20543;-74
2023/04/04 10:18:20;;;;;;;1.43;0.90;;;12.40;64.80;;;;;;5014003;28;21180;-74
2023/04/04 10:20:49;;;;;;;1.47;1.00;;;12.40;65.90;;;;;;5027148;28;20553;-74
2023/04/04 10:23:16;;;;;;;1.50;1.00;;;12.70;67.10;;;;;;5001915;28;20505;-74
2023/04/04 10:25:44;;;;;;;1.47;0.90;;;12.90;64.30;;;;;;5026083;28;21051;-74
2023/04/04 10:28:11;;;;;;;1.47;1.00;;;12.70;64.20;;;;;;5006566;28;21005;-74
2023/04/04 10:30:43;;;;;;;1.47;1.00;;;12.90;64.80;;;;;;5035313;28;20456;-74
2023/04/04 10:33:18;;;;;;;1.50;1.00;;;13.00;63.70;;;;;;5011054;28;20487;-74
2023/04/04 10:35:51;;;;;;;1.50;1.20;;;13.00;64.80;;;;;;5026330;28;20458;-75
2023/04/04 10:38:22;;;;;;;1.50;1.00;;;12.90;64.70;;;;;;5001347;28;20467;-73
2023/04/04 10:40:51;;;;;;;1.50;1.00;;;12.90;65.40;;;;;;5017588;28;20617;-75
2023/04/04 10:43:23;;;;;;;1.50;1.10;;;13.10;64.00;;;;;;5002786;28;20467;-75
2023/04/04 10:45:51;;;;;;;1.50;1.00;;;12.60;62.40;;;;;;5013845;28;20456;-73
2023/04/04 10:48:19;;;;;;;1.47;1.00;;;12.60;64.40;;;;;;5008014;28;20471;-77
2023/04/04 10:50:47;;;;;;;1.47;1.00;;;12.60;63.10;;;;;;5022170;28;20470;-75
2023/04/04 10:53:14;;;;;;;1.47;1.00;;;12.90;66.00;;;;;;5000394;28;20490;-75
2023/04/04 10:55:43;;;;;;;1.50;1.00;;;13.20;64.60;;;;;;5027977;28;20459;-76
2023/04/04 10:58:10;;;;;;;1.47;1.00;;;13.40;64.90;;;;;;4989836;28;21054;-75
2023/04/04 11:00:53;;;;;;;1.50;1.00;;;13.70;64.20;;;;;;5026659;28;20546;-75
2023/04/04 11:03:21;;;;;;;1.43;1.00;;;14.00;64.20;;;;;;4999630;28;20819;-74
2023/04/04 11:05:50;;;;;;;1.50;1.00;;;14.20;63.20;;;;;;5024367;28;20522;-75
2023/04/04 11:08:19;;;;;;;1.50;1.00;;;14.30;62.20;;;;;;5005592;28;20569;-74
2023/04/04 11:10:48;;;;;;;1.50;1.00;;;14.60;63.90;;;;;;5025740;28;20545;-74
2023/04/04 11:13:17;;;;;;;1.50;0.90;;;14.50;60.90;;;;;;4996768;28;20479;-74
2023/04/04 11:15:54;;;;;;;1.50;0.90;;;14.40;60.50;;;;;;5025286;28;20491;-75
2023/04/04 11:18:22;;;;;;;1.50;1.00;;;14.40;60.80;;;;;;5004244;28;20478;-74
2023/04/04 11:20:49;;;;;;;1.47;0.90;;;14.40;62.00;;;;;;5019331;28;20464;-73
2023/04/04 11:23:19;;;;;;;1.50;0.90;;;14.60;62.60;;;;;;5015346;28;20571;-74
2023/04/04 11:25:58;;;;;;;1.50;1.00;;;14.70;61.20;;;;;;5020913;28;20593;-73
2023/04/04 11:28:28;;;;;;;1.40;0.90;;;15.10;60.40;;;;;;4996331;28;20479;-72
2023/04/04 11:31:25;;;;;;;1.50;0.90;;;15.30;61.80;;;;;;5011750;28;20479;-74
2023/04/04 11:33:55;;;;;;;1.50;1.10;;;15.10;61.50;;;;;;5019530;28;20459;-73
2023/04/04 11:36:49;;;;;;;1.43;0.97;;;15.10;61.70;;;;;;5005211;28;20516;-74
2023/04/04 11:39:25;;;;;;;1.43;0.90;;;15.20;60.50;;;;;;5008354;28;20467;-75
2023/04/04 11:41:57;;;;;;;1.43;1.00;;;15.10;58.60;;;;;;5000246;28;20498;-73
2023/04/04 11:44:28;;;;;;;1.47;0.97;;;15.00;60.70;;;;;;5013140;28;20487;-74
2023/04/04 11:47:01;;;;;;;1.47;0.90;;;15.10;61.50;;;;;;5001349;28;20895;-73
2023/04/04 11:49:29;;;;;;;1.50;0.90;;;15.20;62.40;;;;;;5011309;28;20546;-73
2023/04/04 11:51:57;;;;;;;1.50;0.90;;;15.30;62.70;;;;;;5010889;28;20497;-74
2023/04/04 11:54:24;;;;;;;1.40;0.90;;;15.50;61.80;;;;;;5018465;28;20997;-74
2023/04/04 11:56:51;;;;;;;1.70;1.40;;;15.70;61.40;;;;;;5010117;28;20491;-73
2023/04/04 11:59:19;;;;;;;1.50;0.90;;;15.80;59.90;;;;;;5022560;28;20471;-73
2023/04/04 12:01:46;;;;;;;1.47;0.90;;;15.40;60.70;;;;;;5002575;28;20885;-74
2023/04/04 12:04:17;;;;;;;1.50;1.00;;;15.20;59.70;;;;;;5015723;28;20500;-74
2023/04/04 12:06:43;;;;;;;1.43;0.90;;;14.80;60.00;;;;;;5004452;28;20818;-74
2023/04/04 12:09:16;;;;;;;1.43;0.90;;;14.90;62.50;;;;;;5009801;28;20489;-74
2023/04/04 12:11:43;;;;;;;1.50;1.00;;;14.90;61.00;;;;;;5007206;28;20478;-74
2023/04/04 12:14:15;;;;;;;1.47;0.90;;;15.00;59.90;;;;;;5011673;28;20471;-74
2023/04/04 12:16:43;;;;;;;1.50;0.90;;;14.80;60.00;;;;;;5007881;28;20480;-74
2023/04/04 12:19:11;;;;;;;1.43;0.90;;;14.70;60.10;;;;;;5018028;28;20466;-74
2023/04/04 12:21:39;;;;;;;1.43;0.90;;;14.70;59.70;;;;;;5007664;28;21011;-74
2023/04/04 12:24:07;;;;;;;1.50;0.90;;;14.70;62.60;;;;;;5009523;28;20722;-74
2023/04/04 12:26:35;;;;;;;1.43;0.90;;;15.00;62.70;;;;;;5004677;28;20566;-74
2023/04/04 12:29:02;;;;;;;1.40;0.90;;;15.10;61.90;;;;;;5011011;28;20517;-74
2023/04/04 12:31:30;;;;;;;1.50;0.90;;;15.00;59.60;;;;;;5008958;28;20492;-73
2023/04/04 12:33:57;;;;;;;1.43;0.90;;;14.70;62.00;;;;;;5010552;28;20486;-74
2023/04/04 12:36:25;;;;;;;1.50;1.00;;;14.80;62.20;;;;;;5008976;28;20556;-74
2023/04/04 12:38:58;;;;;;;1.43;0.90;;;15.00;64.00;;;;;;5011378;28;20529;-75
2023/04/04 12:41:25;;;;;;;1.47;0.90;;;15.30;62.80;;;;;;5010906;28;20558;-75
2023/04/04 12:43:52;;;;;;;1.47;0.90;;;15.40;61.10;;;;;;5020731;28;20486;-76
2023/04/04 12:46:25;;;;;;;1.43;0.90;;;15.30;61.20;;;;;;5013717;28;20855;-74
2023/04/04 12:48:53;;;;;;;1.47;1.00;;;15.40;61.50;;;;;;5019175;28;20580;-75
2023/04/04 12:51:20;;;;;;;1.47;0.90;;;15.40;60.50;;;;;;5013862;28;20694;-75
2023/04/04 12:53:52;;;;;;;1.43;0.90;;;15.50;60.90;;;;;;5020355;28;20558;-74
2023/04/04 12:56:25;;;;;;;1.80;1.40;;;15.50;60.00;;;;;;5008871;28;20480;-75
2023/04/04 12:58:52;;;;;;;1.40;0.97;;;15.30;58.90;;;;;;5010998;28;20697;-73